sensor_id;sensor_type;location;lat;lon;timestamp;pressure;altitude;pressure_sealevel;temperature
58929;BMP180;44713;53.378;10.022;2022-10-31T00:01:33;101579.00;;;12.10
58929;BMP180;44713;53.378;10.022;2022-10-31T00:03:59;101572.00;;;12.20
58929;BMP180;44713;53.378;10.022;2022-10-31T00:06:25;101583.00;;;12.20
58929;BMP180;44713;53.378;10.022;2022-10-31T00:08:53;101582.00;;;12.10
58929;BMP180;44713;53.378;10.022;2022-10-31T00:11:18;101576.00;;;12.20
58929;BMP180;44713;53.378;10.022;2022-10-31T00:13:43;101585.00;;;12.30
58929;BMP180;44713;53.378;10.022;2022-10-31T00:16:20;101586.00;;;12.40
58929;BMP180;44713;53.378;10.022;2022-10-31T00:18:49;101585.00;;;12.40
58929;BMP180;44713;53.378;10.022;2022-10-31T00:21:15;101589.00;;;12.50
58929;BMP180;44713;53.378;10.022;2022-10-31T00:23:40;101592.00;;;12.50
58929;BMP180;44713;53.378;10.022;2022-10-31T00:26:05;101586.00;;;12.60
58929;BMP180;44713;53.378;10.022;2022-10-31T00:28:32;101584.00;;;12.60
58929;BMP180;44713;53.378;10.022;2022-10-31T00:31:02;101582.00;;;12.60
58929;BMP180;44713;53.378;10.022;2022-10-31T00:33:28;101581.00;;;12.60
58929;BMP180;44713;53.378;10.022;2022-10-31T00:35:54;101582.00;;;12.60
58929;BMP180;44713;53.378;10.022;2022-10-31T00:38:19;101587.00;;;12.60
58929;BMP180;44713;53.378;10.022;2022-10-31T00:40:44;101584.00;;;12.70
58929;BMP180;44713;53.378;10.022;2022-10-31T00:43:10;101585.00;;;12.70
58929;BMP180;44713;53.378;10.022;2022-10-31T00:45:35;101583.00;;;12.70
58929;BMP180;44713;53.378;10.022;2022-10-31T00:48:00;101584.00;;;12.80
58929;BMP180;44713;53.378;10.022;2022-10-31T00:50:26;101585.00;;;12.70
58929;BMP180;44713;53.378;10.022;2022-10-31T00:52:51;101577.00;;;12.70
58929;BMP180;44713;53.378;10.022;2022-10-31T00:55:16;101570.00;;;12.60
58929;BMP180;44713;53.378;10.022;2022-10-31T00:57:42;101576.00;;;12.60
58929;BMP180;44713;53.378;10.022;2022-10-31T01:00:10;101583.00;;;12.50
58929;BMP180;44713;53.378;10.022;2022-10-31T01:02:36;101578.00;;;12.50
58929;BMP180;44713;53.378;10.022;2022-10-31T01:05:01;101585.00;;;12.40
58929;BMP180;44713;53.378;10.022;2022-10-31T01:07:26;101597.00;;;12.40
58929;BMP180;44713;53.378;10.022;2022-10-31T01:09:52;101613.00;;;12.30
58929;BMP180;44713;53.378;10.022;2022-10-31T01:12:18;101616.00;;;12.20
58929;BMP180;44713;53.378;10.022;2022-10-31T01:14:44;101624.00;;;12.20
58929;BMP180;44713;53.378;10.022;2022-10-31T01:17:11;101627.00;;;12.30
58929;BMP180;44713;53.378;10.022;2022-10-31T01:19:36;101619.00;;;12.30
58929;BMP180;44713;53.378;10.022;2022-10-31T01:22:02;101633.00;;;12.30
58929;BMP180;44713;53.378;10.022;2022-10-31T01:24:28;101629.00;;;12.40
58929;BMP180;44713;53.378;10.022;2022-10-31T01:26:53;101632.00;;;12.30
58929;BMP180;44713;53.378;10.022;2022-10-31T01:29:19;101638.00;;;12.40
58929;BMP180;44713;53.378;10.022;2022-10-31T01:31:44;101639.00;;;12.40
58929;BMP180;44713;53.378;10.022;2022-10-31T01:34:14;101641.00;;;12.40
58929;BMP180;44713;53.378;10.022;2022-10-31T01:36:41;101643.00;;;12.50
58929;BMP180;44713;53.378;10.022;2022-10-31T01:39:11;101648.00;;;12.70
58929;BMP180;44713;53.378;10.022;2022-10-31T01:41:42;101651.00;;;12.60
58929;BMP180;44713;53.378;10.022;2022-10-31T01:46:44;101646.00;;;12.70
58929;BMP180;44713;53.378;10.022;2022-10-31T01:49:18;101651.00;;;12.70
58929;BMP180;44713;53.378;10.022;2022-10-31T01:51:51;101648.00;;;12.70
58929;BMP180;44713;53.378;10.022;2022-10-31T01:54:21;101654.00;;;12.80
58929;BMP180;44713;53.378;10.022;2022-10-31T01:56:52;101659.00;;;12.70
58929;BMP180;44713;53.378;10.022;2022-10-31T01:59:20;101660.00;;;12.70
58929;BMP180;44713;53.378;10.022;2022-10-31T02:01:47;101665.00;;;12.80
58929;BMP180;44713;53.378;10.022;2022-10-31T02:04:15;101656.00;;;12.80
58929;BMP180;44713;53.378;10.022;2022-10-31T02:07:06;101660.00;;;12.80
58929;BMP180;44713;53.378;10.022;2022-10-31T02:09:33;101665.00;;;12.80
58929;BMP180;44713;53.378;10.022;2022-10-31T02:12:01;101662.00;;;12.80
58929;BMP180;44713;53.378;10.022;2022-10-31T02:14:29;101669.00;;;12.80
58929;BMP180;44713;53.378;10.022;2022-10-31T02:16:55;101665.00;;;12.80
58929;BMP180;44713;53.378;10.022;2022-10-31T02:36:56;101683.00;;;12.60
58929;BMP180;44713;53.378;10.022;2022-10-31T02:42:03;101682.00;;;12.50
58929;BMP180;44713;53.378;10.022;2022-10-31T02:44:37;101683.00;;;12.50
58929;BMP180;44713;53.378;10.022;2022-10-31T02:49:38;101687.00;;;12.50
58929;BMP180;44713;53.378;10.022;2022-10-31T02:54:47;101684.00;;;12.50
58929;BMP180;44713;53.378;10.022;2022-10-31T02:57:14;101690.00;;;12.50
58929;BMP180;44713;53.378;10.022;2022-10-31T02:59:47;101684.00;;;12.50
58929;BMP180;44713;53.378;10.022;2022-10-31T03:02:19;101683.00;;;12.50
58929;BMP180;44713;53.378;10.022;2022-10-31T03:07:42;101692.00;;;12.40
58929;BMP180;44713;53.378;10.022;2022-10-31T03:10:21;101694.00;;;12.40
58929;BMP180;44713;53.378;10.022;2022-10-31T03:13:18;101700.00;;;12.40
58929;BMP180;44713;53.378;10.022;2022-10-31T03:15:51;101695.00;;;12.40
58929;BMP180;44713;53.378;10.022;2022-10-31T03:18:28;101698.00;;;12.40
58929;BMP180;44713;53.378;10.022;2022-10-31T03:21:05;101700.00;;;12.40
58929;BMP180;44713;53.378;10.022;2022-10-31T03:23:35;101696.00;;;12.40
58929;BMP180;44713;53.378;10.022;2022-10-31T03:26:03;101701.00;;;12.40
58929;BMP180;44713;53.378;10.022;2022-10-31T03:28:36;101715.00;;;12.40
58929;BMP180;44713;53.378;10.022;2022-10-31T03:31:04;101711.00;;;12.40
58929;BMP180;44713;53.378;10.022;2022-10-31T03:33:33;101716.00;;;12.40
58929;BMP180;44713;53.378;10.022;2022-10-31T03:36:03;101719.00;;;12.40
58929;BMP180;44713;53.378;10.022;2022-10-31T03:38:29;101712.00;;;12.40
58929;BMP180;44713;53.378;10.022;2022-10-31T03:40:58;101728.00;;;12.50
58929;BMP180;44713;53.378;10.022;2022-10-31T03:43:29;101726.00;;;12.50
58929;BMP180;44713;53.378;10.022;2022-10-31T03:45:55;101725.00;;;12.40
58929;BMP180;44713;53.378;10.022;2022-10-31T03:48:22;101734.00;;;12.40
58929;BMP180;44713;53.378;10.022;2022-10-31T03:50:59;101740.00;;;12.40
58929;BMP180;44713;53.378;10.022;2022-10-31T03:53:57;101734.00;;;12.40
58929;BMP180;44713;53.378;10.022;2022-10-31T03:56:40;101750.00;;;12.40
58929;BMP180;44713;53.378;10.022;2022-10-31T03:59:51;101747.00;;;12.40
58929;BMP180;44713;53.378;10.022;2022-10-31T04:02:21;101747.00;;;12.30
58929;BMP180;44713;53.378;10.022;2022-10-31T04:04:49;101742.00;;;12.30
58929;BMP180;44713;53.378;10.022;2022-10-31T04:07:15;101747.00;;;12.30
58929;BMP180;44713;53.378;10.022;2022-10-31T04:09:44;101754.00;;;12.30
58929;BMP180;44713;53.378;10.022;2022-10-31T04:12:13;101751.00;;;12.30
58929;BMP180;44713;53.378;10.022;2022-10-31T04:15:03;101748.00;;;12.40
58929;BMP180;44713;53.378;10.022;2022-10-31T04:17:32;101753.00;;;12.40
58929;BMP180;44713;53.378;10.022;2022-10-31T04:19:59;101758.00;;;12.50
58929;BMP180;44713;53.378;10.022;2022-10-31T04:22:25;101758.00;;;12.50
58929;BMP180;44713;53.378;10.022;2022-10-31T04:24:51;101758.00;;;12.50
58929;BMP180;44713;53.378;10.022;2022-10-31T04:27:17;101758.00;;;12.60
58929;BMP180;44713;53.378;10.022;2022-10-31T04:29:42;101753.00;;;12.60
58929;BMP180;44713;53.378;10.022;2022-10-31T04:32:08;101758.00;;;12.60
58929;BMP180;44713;53.378;10.022;2022-10-31T04:34:33;101761.00;;;12.60
58929;BMP180;44713;53.378;10.022;2022-10-31T04:36:58;101755.00;;;12.60
58929;BMP180;44713;53.378;10.022;2022-10-31T04:39:24;101761.00;;;12.60
58929;BMP180;44713;53.378;10.022;2022-10-31T04:42:06;101760.00;;;12.60
58929;BMP180;44713;53.378;10.022;2022-10-31T04:44:32;101767.00;;;12.60
58929;BMP180;44713;53.378;10.022;2022-10-31T04:47:00;101766.00;;;12.60
58929;BMP180;44713;53.378;10.022;2022-10-31T04:49:25;101761.00;;;12.70
58929;BMP180;44713;53.378;10.022;2022-10-31T04:51:52;101763.00;;;12.60
58929;BMP180;44713;53.378;10.022;2022-10-31T04:54:17;101752.00;;;12.70
58929;BMP180;44713;53.378;10.022;2022-10-31T04:57:01;101761.00;;;12.70
58929;BMP180;44713;53.378;10.022;2022-10-31T04:59:27;101769.00;;;12.70
58929;BMP180;44713;53.378;10.022;2022-10-31T05:01:53;101774.00;;;12.70
58929;BMP180;44713;53.378;10.022;2022-10-31T05:04:32;101770.00;;;12.80
58929;BMP180;44713;53.378;10.022;2022-10-31T05:06:57;101776.00;;;12.80
58929;BMP180;44713;53.378;10.022;2022-10-31T05:09:24;101777.00;;;12.80
58929;BMP180;44713;53.378;10.022;2022-10-31T05:11:49;101784.00;;;12.80
58929;BMP180;44713;53.378;10.022;2022-10-31T05:14:40;101778.00;;;12.80
58929;BMP180;44713;53.378;10.022;2022-10-31T05:17:37;101781.00;;;12.90
58929;BMP180;44713;53.378;10.022;2022-10-31T05:20:26;101773.00;;;12.90
58929;BMP180;44713;53.378;10.022;2022-10-31T05:23:11;101773.00;;;12.90
58929;BMP180;44713;53.378;10.022;2022-10-31T05:25:36;101780.00;;;12.90
58929;BMP180;44713;53.378;10.022;2022-10-31T05:28:03;101769.00;;;12.90
58929;BMP180;44713;53.378;10.022;2022-10-31T05:30:30;101769.00;;;12.90
58929;BMP180;44713;53.378;10.022;2022-10-31T05:32:57;101765.00;;;12.90
58929;BMP180;44713;53.378;10.022;2022-10-31T05:35:41;101761.00;;;12.90
58929;BMP180;44713;53.378;10.022;2022-10-31T05:38:29;101761.00;;;12.90
58929;BMP180;44713;53.378;10.022;2022-10-31T05:40:58;101758.00;;;12.90
58929;BMP180;44713;53.378;10.022;2022-10-31T05:43:26;101772.00;;;12.80
58929;BMP180;44713;53.378;10.022;2022-10-31T05:45:53;101772.00;;;12.80
58929;BMP180;44713;53.378;10.022;2022-10-31T05:48:38;101775.00;;;12.80
58929;BMP180;44713;53.378;10.022;2022-10-31T05:51:22;101770.00;;;12.80
58929;BMP180;44713;53.378;10.022;2022-10-31T05:53:48;101769.00;;;12.80
58929;BMP180;44713;53.378;10.022;2022-10-31T05:56:15;101774.00;;;12.80
58929;BMP180;44713;53.378;10.022;2022-10-31T05:58:41;101778.00;;;12.80
58929;BMP180;44713;53.378;10.022;2022-10-31T06:01:07;101778.00;;;12.90
58929;BMP180;44713;53.378;10.022;2022-10-31T06:03:32;101773.00;;;12.90
58929;BMP180;44713;53.378;10.022;2022-10-31T06:06:00;101771.00;;;12.90
58929;BMP180;44713;53.378;10.022;2022-10-31T06:08:31;101777.00;;;12.90
58929;BMP180;44713;53.378;10.022;2022-10-31T06:11:01;101772.00;;;12.90
58929;BMP180;44713;53.378;10.022;2022-10-31T06:13:46;101778.00;;;12.90
58929;BMP180;44713;53.378;10.022;2022-10-31T06:16:20;101780.00;;;13.00
58929;BMP180;44713;53.378;10.022;2022-10-31T06:18:48;101777.00;;;13.00
58929;BMP180;44713;53.378;10.022;2022-10-31T06:21:14;101786.00;;;13.00
58929;BMP180;44713;53.378;10.022;2022-10-31T06:23:39;101790.00;;;13.00
58929;BMP180;44713;53.378;10.022;2022-10-31T06:26:31;101796.00;;;13.00
58929;BMP180;44713;53.378;10.022;2022-10-31T06:28:56;101792.00;;;13.00
58929;BMP180;44713;53.378;10.022;2022-10-31T06:31:41;101799.00;;;13.00
58929;BMP180;44713;53.378;10.022;2022-10-31T06:34:07;101792.00;;;13.10
58929;BMP180;44713;53.378;10.022;2022-10-31T06:36:32;101794.00;;;13.10
58929;BMP180;44713;53.378;10.022;2022-10-31T06:38:58;101790.00;;;13.10
58929;BMP180;44713;53.378;10.022;2022-10-31T06:41:23;101812.00;;;13.10
58929;BMP180;44713;53.378;10.022;2022-10-31T06:43:49;101815.00;;;13.10
58929;BMP180;44713;53.378;10.022;2022-10-31T06:46:37;101818.00;;;13.10
58929;BMP180;44713;53.378;10.022;2022-10-31T06:49:22;101816.00;;;13.10
58929;BMP180;44713;53.378;10.022;2022-10-31T06:51:55;101814.00;;;13.20
58929;BMP180;44713;53.378;10.022;2022-10-31T06:54:21;101819.00;;;13.20
58929;BMP180;44713;53.378;10.022;2022-10-31T06:56:48;101829.00;;;13.20
58929;BMP180;44713;53.378;10.022;2022-10-31T06:59:15;101829.00;;;13.20
58929;BMP180;44713;53.378;10.022;2022-10-31T07:02:00;101827.00;;;13.20
58929;BMP180;44713;53.378;10.022;2022-10-31T07:04:26;101830.00;;;13.30
58929;BMP180;44713;53.378;10.022;2022-10-31T07:06:51;101826.00;;;13.30
58929;BMP180;44713;53.378;10.022;2022-10-31T07:09:19;101831.00;;;13.30
58929;BMP180;44713;53.378;10.022;2022-10-31T07:11:45;101838.00;;;13.30
58929;BMP180;44713;53.378;10.022;2022-10-31T07:14:11;101844.00;;;13.30
58929;BMP180;44713;53.378;10.022;2022-10-31T07:16:36;101836.00;;;13.40
58929;BMP180;44713;53.378;10.022;2022-10-31T07:19:03;101831.00;;;13.40
58929;BMP180;44713;53.378;10.022;2022-10-31T07:21:29;101840.00;;;13.50
58929;BMP180;44713;53.378;10.022;2022-10-31T07:23:54;101837.00;;;13.50
58929;BMP180;44713;53.378;10.022;2022-10-31T07:26:38;101845.00;;;13.50
58929;BMP180;44713;53.378;10.022;2022-10-31T07:29:04;101852.00;;;13.60
58929;BMP180;44713;53.378;10.022;2022-10-31T07:31:29;101853.00;;;13.60
58929;BMP180;44713;53.378;10.022;2022-10-31T07:34:00;101842.00;;;13.70
58929;BMP180;44713;53.378;10.022;2022-10-31T07:36:25;101852.00;;;13.60
58929;BMP180;44713;53.378;10.022;2022-10-31T07:38:53;101852.00;;;13.60
58929;BMP180;44713;53.378;10.022;2022-10-31T07:41:19;101852.00;;;13.60
58929;BMP180;44713;53.378;10.022;2022-10-31T07:43:45;101858.00;;;13.60
58929;BMP180;44713;53.378;10.022;2022-10-31T07:46:16;101855.00;;;13.70
58929;BMP180;44713;53.378;10.022;2022-10-31T07:49:16;101863.00;;;13.70
58929;BMP180;44713;53.378;10.022;2022-10-31T07:52:00;101865.00;;;13.80
58929;BMP180;44713;53.378;10.022;2022-10-31T07:54:51;101860.00;;;13.90
58929;BMP180;44713;53.378;10.022;2022-10-31T07:57:22;101861.00;;;13.90
58929;BMP180;44713;53.378;10.022;2022-10-31T07:59:47;101857.00;;;13.90
58929;BMP180;44713;53.378;10.022;2022-10-31T08:02:13;101856.00;;;14.00
58929;BMP180;44713;53.378;10.022;2022-10-31T08:04:47;101853.00;;;14.00
58929;BMP180;44713;53.378;10.022;2022-10-31T08:07:28;101857.00;;;14.10
58929;BMP180;44713;53.378;10.022;2022-10-31T08:10:00;101857.00;;;14.10
58929;BMP180;44713;53.378;10.022;2022-10-31T08:12:29;101857.00;;;14.10
58929;BMP180;44713;53.378;10.022;2022-10-31T08:14:55;101869.00;;;14.20
58929;BMP180;44713;53.378;10.022;2022-10-31T08:17:20;101865.00;;;14.10
58929;BMP180;44713;53.378;10.022;2022-10-31T08:19:57;101864.00;;;14.10
58929;BMP180;44713;53.378;10.022;2022-10-31T08:22:28;101869.00;;;14.20
58929;BMP180;44713;53.378;10.022;2022-10-31T08:24:53;101864.00;;;14.20
58929;BMP180;44713;53.378;10.022;2022-10-31T08:27:19;101873.00;;;14.20
58929;BMP180;44713;53.378;10.022;2022-10-31T08:29:45;101864.00;;;14.20
58929;BMP180;44713;53.378;10.022;2022-10-31T08:32:11;101864.00;;;14.30
58929;BMP180;44713;53.378;10.022;2022-10-31T08:34:59;101864.00;;;14.30
58929;BMP180;44713;53.378;10.022;2022-10-31T08:37:43;101856.00;;;14.20
58929;BMP180;44713;53.378;10.022;2022-10-31T08:40:09;101871.00;;;14.30
58929;BMP180;44713;53.378;10.022;2022-10-31T08:42:36;101875.00;;;14.30
58929;BMP180;44713;53.378;10.022;2022-10-31T08:45:02;101865.00;;;14.40
58929;BMP180;44713;53.378;10.022;2022-10-31T08:47:29;101872.00;;;14.40
58929;BMP180;44713;53.378;10.022;2022-10-31T08:49:55;101858.00;;;14.50
58929;BMP180;44713;53.378;10.022;2022-10-31T08:52:24;101857.00;;;14.60
58929;BMP180;44713;53.378;10.022;2022-10-31T08:54:54;101857.00;;;14.60
58929;BMP180;44713;53.378;10.022;2022-10-31T08:57:45;101865.00;;;14.70
58929;BMP180;44713;53.378;10.022;2022-10-31T09:00:11;101870.00;;;14.70
58929;BMP180;44713;53.378;10.022;2022-10-31T09:03:12;101870.00;;;14.70
58929;BMP180;44713;53.378;10.022;2022-10-31T09:05:38;101870.00;;;14.70
58929;BMP180;44713;53.378;10.022;2022-10-31T09:08:04;101852.00;;;14.70
58929;BMP180;44713;53.378;10.022;2022-10-31T09:10:32;101854.00;;;14.80
58929;BMP180;44713;53.378;10.022;2022-10-31T09:12:59;101856.00;;;14.80
58929;BMP180;44713;53.378;10.022;2022-10-31T09:15:44;101851.00;;;14.80
58929;BMP180;44713;53.378;10.022;2022-10-31T09:18:21;101849.00;;;14.90
58929;BMP180;44713;53.378;10.022;2022-10-31T09:20:58;101855.00;;;14.90
58929;BMP180;44713;53.378;10.022;2022-10-31T09:23:26;101854.00;;;14.90
58929;BMP180;44713;53.378;10.022;2022-10-31T09:25:53;101847.00;;;14.90
58929;BMP180;44713;53.378;10.022;2022-10-31T09:28:36;101848.00;;;14.80
58929;BMP180;44713;53.378;10.022;2022-10-31T09:31:10;101847.00;;;14.90
58929;BMP180;44713;53.378;10.022;2022-10-31T09:33:58;101840.00;;;14.90
58929;BMP180;44713;53.378;10.022;2022-10-31T09:36:37;101839.00;;;14.90
58929;BMP180;44713;53.378;10.022;2022-10-31T09:39:04;101845.00;;;15.00
58929;BMP180;44713;53.378;10.022;2022-10-31T09:42:09;101847.00;;;14.90
58929;BMP180;44713;53.378;10.022;2022-10-31T09:44:41;101859.00;;;14.90
58929;BMP180;44713;53.378;10.022;2022-10-31T09:50:34;101846.00;;;14.90
58929;BMP180;44713;53.378;10.022;2022-10-31T09:56:25;101853.00;;;14.90
58929;BMP180;44713;53.378;10.022;2022-10-31T09:58:57;101859.00;;;15.00
58929;BMP180;44713;53.378;10.022;2022-10-31T10:03:56;101870.00;;;15.00
58929;BMP180;44713;53.378;10.022;2022-10-31T10:06:55;101872.00;;;15.10
58929;BMP180;44713;53.378;10.022;2022-10-31T10:09:39;101870.00;;;15.10
58929;BMP180;44713;53.378;10.022;2022-10-31T10:13:14;101874.00;;;15.10
58929;BMP180;44713;53.378;10.022;2022-10-31T10:16:03;101881.00;;;15.20
58929;BMP180;44713;53.378;10.022;2022-10-31T10:21:40;101870.00;;;15.20
58929;BMP180;44713;53.378;10.022;2022-10-31T10:24:33;101861.00;;;15.20
58929;BMP180;44713;53.378;10.022;2022-10-31T10:30:02;101851.00;;;15.40
58929;BMP180;44713;53.378;10.022;2022-10-31T10:32:30;101842.00;;;15.30
58929;BMP180;44713;53.378;10.022;2022-10-31T10:35:02;101843.00;;;15.40
58929;BMP180;44713;53.378;10.022;2022-10-31T10:37:50;101843.00;;;15.40
58929;BMP180;44713;53.378;10.022;2022-10-31T10:40:22;101837.00;;;15.50
58929;BMP180;44713;53.378;10.022;2022-10-31T10:43:18;101835.00;;;15.60
58929;BMP180;44713;53.378;10.022;2022-10-31T10:49:11;101832.00;;;15.60
58929;BMP180;44713;53.378;10.022;2022-10-31T10:51:49;101840.00;;;15.60
58929;BMP180;44713;53.378;10.022;2022-10-31T10:59:46;101844.00;;;15.70
58929;BMP180;44713;53.378;10.022;2022-10-31T11:02:20;101843.00;;;15.70
58929;BMP180;44713;53.378;10.022;2022-10-31T11:04:58;101840.00;;;15.70
58929;BMP180;44713;53.378;10.022;2022-10-31T11:07:24;101838.00;;;15.80
58929;BMP180;44713;53.378;10.022;2022-10-31T11:09:50;101846.00;;;15.70
58929;BMP180;44713;53.378;10.022;2022-10-31T11:14:47;101829.00;;;15.80
58929;BMP180;44713;53.378;10.022;2022-10-31T11:17:25;101815.00;;;15.80
58929;BMP180;44713;53.378;10.022;2022-10-31T11:20:43;101821.00;;;15.80
58929;BMP180;44713;53.378;10.022;2022-10-31T11:23:18;101819.00;;;15.90
58929;BMP180;44713;53.378;10.022;2022-10-31T11:25:57;101822.00;;;16.00
58929;BMP180;44713;53.378;10.022;2022-10-31T11:28:24;101813.00;;;16.00
58929;BMP180;44713;53.378;10.022;2022-10-31T11:30:56;101809.00;;;15.90
58929;BMP180;44713;53.378;10.022;2022-10-31T11:33:34;101809.00;;;15.90
58929;BMP180;44713;53.378;10.022;2022-10-31T11:36:01;101805.00;;;16.00
58929;BMP180;44713;53.378;10.022;2022-10-31T11:38:35;101811.00;;;16.20
58929;BMP180;44713;53.378;10.022;2022-10-31T11:41:09;101813.00;;;16.30
58929;BMP180;44713;53.378;10.022;2022-10-31T11:43:36;101814.00;;;16.30
58929;BMP180;44713;53.378;10.022;2022-10-31T11:46:10;101808.00;;;16.30
58929;BMP180;44713;53.378;10.022;2022-10-31T11:48:36;101811.00;;;16.30
58929;BMP180;44713;53.378;10.022;2022-10-31T11:51:02;101806.00;;;16.30
58929;BMP180;44713;53.378;10.022;2022-10-31T11:53:30;101800.00;;;16.30
58929;BMP180;44713;53.378;10.022;2022-10-31T11:56:10;101804.00;;;16.20
58929;BMP180;44713;53.378;10.022;2022-10-31T11:58:37;101806.00;;;16.20
58929;BMP180;44713;53.378;10.022;2022-10-31T12:01:02;101795.00;;;16.30
58929;BMP180;44713;53.378;10.022;2022-10-31T12:08:39;101804.00;;;16.70
58929;BMP180;44713;53.378;10.022;2022-10-31T12:11:18;101797.00;;;16.80
58929;BMP180;44713;53.378;10.022;2022-10-31T12:16:22;101802.00;;;17.10
58929;BMP180;44713;53.378;10.022;2022-10-31T12:19:20;101792.00;;;17.40
58929;BMP180;44713;53.378;10.022;2022-10-31T12:22:13;101790.00;;;17.40
58929;BMP180;44713;53.378;10.022;2022-10-31T12:24:55;101788.00;;;17.30
58929;BMP180;44713;53.378;10.022;2022-10-31T12:30:13;101783.00;;;17.20
58929;BMP180;44713;53.378;10.022;2022-10-31T12:33:03;101788.00;;;17.30
58929;BMP180;44713;53.378;10.022;2022-10-31T12:35:40;101779.00;;;17.40
58929;BMP180;44713;53.378;10.022;2022-10-31T12:38:39;101778.00;;;17.40
58929;BMP180;44713;53.378;10.022;2022-10-31T12:41:30;101766.00;;;17.50
58929;BMP180;44713;53.378;10.022;2022-10-31T12:56:04;101756.00;;;17.60
58929;BMP180;44713;53.378;10.022;2022-10-31T12:58:33;101755.00;;;17.70
58929;BMP180;44713;53.378;10.022;2022-10-31T13:03:38;101749.00;;;17.60
58929;BMP180;44713;53.378;10.022;2022-10-31T13:06:09;101754.00;;;17.60
58929;BMP180;44713;53.378;10.022;2022-10-31T13:08:44;101755.00;;;17.70
58929;BMP180;44713;53.378;10.022;2022-10-31T13:11:16;101750.00;;;17.70
58929;BMP180;44713;53.378;10.022;2022-10-31T13:14:07;101750.00;;;17.70
58929;BMP180;44713;53.378;10.022;2022-10-31T13:16:37;101745.00;;;17.80
58929;BMP180;44713;53.378;10.022;2022-10-31T13:19:16;101737.00;;;17.80
58929;BMP180;44713;53.378;10.022;2022-10-31T13:22:18;101730.00;;;17.80
58929;BMP180;44713;53.378;10.022;2022-10-31T13:27:25;101726.00;;;17.80
58929;BMP180;44713;53.378;10.022;2022-10-31T13:32:41;101725.00;;;17.90
58929;BMP180;44713;53.378;10.022;2022-10-31T13:35:15;101723.00;;;17.80
58929;BMP180;44713;53.378;10.022;2022-10-31T13:37:45;101716.00;;;17.70
58929;BMP180;44713;53.378;10.022;2022-10-31T13:40:17;101712.00;;;17.70
58929;BMP180;44713;53.378;10.022;2022-10-31T13:43:11;101723.00;;;17.60
58929;BMP180;44713;53.378;10.022;2022-10-31T13:45:51;101710.00;;;17.50
58929;BMP180;44713;53.378;10.022;2022-10-31T13:50:59;101704.00;;;17.50
58929;BMP180;44713;53.378;10.022;2022-10-31T13:59:15;101693.00;;;17.40
58929;BMP180;44713;53.378;10.022;2022-10-31T14:01:50;101690.00;;;17.30
58929;BMP180;44713;53.378;10.022;2022-10-31T14:04:17;101678.00;;;17.20
58929;BMP180;44713;53.378;10.022;2022-10-31T14:09:29;101678.00;;;17.10
58929;BMP180;44713;53.378;10.022;2022-10-31T14:11:57;101680.00;;;17.10
58929;BMP180;44713;53.378;10.022;2022-10-31T14:14:40;101677.00;;;17.10
58929;BMP180;44713;53.378;10.022;2022-10-31T14:17:16;101682.00;;;17.10
58929;BMP180;44713;53.378;10.022;2022-10-31T14:19:42;101679.00;;;17.10
58929;BMP180;44713;53.378;10.022;2022-10-31T14:22:20;101663.00;;;16.90
58929;BMP180;44713;53.378;10.022;2022-10-31T14:24:46;101669.00;;;16.90
58929;BMP180;44713;53.378;10.022;2022-10-31T14:29:49;101642.00;;;16.80
58929;BMP180;44713;53.378;10.022;2022-10-31T14:32:23;101647.00;;;16.80
58929;BMP180;44713;53.378;10.022;2022-10-31T14:34:55;101642.00;;;16.90
58929;BMP180;44713;53.378;10.022;2022-10-31T14:37:32;101633.00;;;16.80
58929;BMP180;44713;53.378;10.022;2022-10-31T14:40:21;101628.00;;;16.60
58929;BMP180;44713;53.378;10.022;2022-10-31T14:51:20;101609.00;;;16.20
58929;BMP180;44713;53.378;10.022;2022-10-31T14:53:47;101607.00;;;16.10
58929;BMP180;44713;53.378;10.022;2022-10-31T14:56:19;101607.00;;;16.10
58929;BMP180;44713;53.378;10.022;2022-10-31T14:58:47;101623.00;;;15.90
58929;BMP180;44713;53.378;10.022;2022-10-31T15:01:48;101623.00;;;16.00
58929;BMP180;44713;53.378;10.022;2022-10-31T15:04:21;101618.00;;;15.90
58929;BMP180;44713;53.378;10.022;2022-10-31T15:09:36;101656.00;;;15.60
58929;BMP180;44713;53.378;10.022;2022-10-31T15:14:50;101647.00;;;15.50
58929;BMP180;44713;53.378;10.022;2022-10-31T15:17:16;101642.00;;;15.40
58929;BMP180;44713;53.378;10.022;2022-10-31T15:19:41;101631.00;;;15.40
58929;BMP180;44713;53.378;10.022;2022-10-31T15:22:16;101625.00;;;15.40
58929;BMP180;44713;53.378;10.022;2022-10-31T15:24:42;101609.00;;;15.30
58929;BMP180;44713;53.378;10.022;2022-10-31T15:27:16;101603.00;;;15.30
58929;BMP180;44713;53.378;10.022;2022-10-31T15:29:50;101588.00;;;15.20
58929;BMP180;44713;53.378;10.022;2022-10-31T15:32:21;101579.00;;;15.10
58929;BMP180;44713;53.378;10.022;2022-10-31T15:34:49;101573.00;;;15.00
58929;BMP180;44713;53.378;10.022;2022-10-31T15:37:17;101567.00;;;15.00
58929;BMP180;44713;53.378;10.022;2022-10-31T15:39:43;101571.00;;;14.80
58929;BMP180;44713;53.378;10.022;2022-10-31T15:44:49;101575.00;;;14.60
58929;BMP180;44713;53.378;10.022;2022-10-31T15:47:17;101581.00;;;14.60
58929;BMP180;44713;53.378;10.022;2022-10-31T15:49:50;101580.00;;;14.60
58929;BMP180;44713;53.378;10.022;2022-10-31T15:52:31;101579.00;;;14.60
58929;BMP180;44713;53.378;10.022;2022-10-31T15:55:15;101572.00;;;14.50
58929;BMP180;44713;53.378;10.022;2022-10-31T15:57:44;101581.00;;;14.50
58929;BMP180;44713;53.378;10.022;2022-10-31T16:00:22;101574.00;;;14.50
58929;BMP180;44713;53.378;10.022;2022-10-31T16:02:48;101563.00;;;14.40
58929;BMP180;44713;53.378;10.022;2022-10-31T16:05:18;101564.00;;;14.40
58929;BMP180;44713;53.378;10.022;2022-10-31T16:07:51;101551.00;;;14.30
58929;BMP180;44713;53.378;10.022;2022-10-31T16:10:26;101555.00;;;14.30
58929;BMP180;44713;53.378;10.022;2022-10-31T16:12:51;101552.00;;;14.30